sensor_id;sensor_type;location;lat;lon;timestamp;P1;durP1;ratioP1;P2;durP2;ratioP2
51495;SDS011;37572;52.094;4.870;2022-07-29T00:01:03;3.72;;;1.40;;
51495;SDS011;37572;52.094;4.870;2022-07-29T00:03:28;3.20;;;1.40;;
51495;SDS011;37572;52.094;4.870;2022-07-29T00:05:53;3.58;;;1.10;;
51495;SDS011;37572;52.094;4.870;2022-07-29T00:08:19;2.95;;;1.77;;
51495;SDS011;37572;52.094;4.870;2022-07-29T00:10:45;4.68;;;1.30;;
51495;SDS011;37572;52.094;4.870;2022-07-29T00:13:10;5.72;;;1.38;;
51495;SDS011;37572;52.094;4.870;2022-07-29T00:15:35;8.38;;;1.50;;
51495;SDS011;37572;52.094;4.870;2022-07-29T00:18:01;1.85;;;1.20;;
51495;SDS011;37572;52.094;4.870;2022-07-29T00:20:26;5.63;;;1.10;;
51495;SDS011;37572;52.094;4.870;2022-07-29T00:22:51;7.43;;;1.50;;
51495;SDS011;37572;52.094;4.870;2022-07-29T00:25:18;2.28;;;1.00;;
51495;SDS011;37572;52.094;4.870;2022-07-29T00:27:43;6.50;;;1.55;;
51495;SDS011;37572;52.094;4.870;2022-07-29T00:30:11;3.03;;;0.95;;
51495;SDS011;37572;52.094;4.870;2022-07-29T00:32:36;4.78;;;1.67;;
51495;SDS011;37572;52.094;4.870;2022-07-29T00:35:02;5.82;;;1.42;;
51495;SDS011;37572;52.094;4.870;2022-07-29T00:37:46;3.95;;;1.30;;
51495;SDS011;37572;52.094;4.870;2022-07-29T00:40:11;3.58;;;1.48;;
51495;SDS011;37572;52.094;4.870;2022-07-29T00:42:46;2.40;;;1.45;;
51495;SDS011;37572;52.094;4.870;2022-07-29T00:45:14;4.18;;;2.03;;
51495;SDS011;37572;52.094;4.870;2022-07-29T00:47:40;5.97;;;1.90;;
51495;SDS011;37572;52.094;4.870;2022-07-29T00:50:06;4.53;;;1.75;;
51495;SDS011;37572;52.094;4.870;2022-07-29T00:52:34;3.83;;;1.48;;
51495;SDS011;37572;52.094;4.870;2022-07-29T00:55:03;3.47;;;1.30;;
51495;SDS011;37572;52.094;4.870;2022-07-29T00:57:29;3.50;;;1.20;;
51495;SDS011;37572;52.094;4.870;2022-07-29T00:59:55;6.13;;;1.42;;
51495;SDS011;37572;52.094;4.870;2022-07-29T01:02:23;4.43;;;1.30;;
51495;SDS011;37572;52.094;4.870;2022-07-29T01:04:48;2.38;;;1.30;;
51495;SDS011;37572;52.094;4.870;2022-07-29T01:07:14;3.38;;;1.48;;
51495;SDS011;37572;52.094;4.870;2022-07-29T01:09:40;5.45;;;1.30;;
51495;SDS011;37572;52.094;4.870;2022-07-29T01:12:07;1.23;;;1.13;;
51495;SDS011;37572;52.094;4.870;2022-07-29T01:14:32;3.38;;;1.85;;
51495;SDS011;37572;52.094;4.870;2022-07-29T01:17:03;3.30;;;1.60;;
51495;SDS011;37572;52.094;4.870;2022-07-29T01:19:50;5.57;;;1.60;;
51495;SDS011;37572;52.094;4.870;2022-07-29T01:31:16;3.00;;;1.50;;
51495;SDS011;37572;52.094;4.870;2022-07-29T01:33:45;3.20;;;1.20;;
51495;SDS011;37572;52.094;4.870;2022-07-29T01:36:22;3.08;;;1.88;;
51495;SDS011;37572;52.094;4.870;2022-07-29T01:39:16;3.47;;;1.80;;
51495;SDS011;37572;52.094;4.870;2022-07-29T01:41:48;3.20;;;1.40;;
51495;SDS011;37572;52.094;4.870;2022-07-29T01:44:19;5.70;;;1.30;;
51495;SDS011;37572;52.094;4.870;2022-07-29T01:46:56;4.47;;;1.77;;
51495;SDS011;37572;52.094;4.870;2022-07-29T01:49:25;3.85;;;1.50;;
51495;SDS011;37572;52.094;4.870;2022-07-29T01:51:54;5.78;;;1.75;;
51495;SDS011;37572;52.094;4.870;2022-07-29T01:54:43;3.13;;;1.30;;
51495;SDS011;37572;52.094;4.870;2022-07-29T01:57:13;5.35;;;1.30;;
51495;SDS011;37572;52.094;4.870;2022-07-29T01:59:42;2.90;;;1.55;;
51495;SDS011;37572;52.094;4.870;2022-07-29T02:02:10;2.50;;;1.42;;
51495;SDS011;37572;52.094;4.870;2022-07-29T02:04:38;5.35;;;1.60;;
51495;SDS011;37572;52.094;4.870;2022-07-29T02:07:06;6.10;;;1.50;;
51495;SDS011;37572;52.094;4.870;2022-07-29T02:09:34;2.92;;;1.38;;
51495;SDS011;37572;52.094;4.870;2022-07-29T02:12:01;2.67;;;1.95;;
51495;SDS011;37572;52.094;4.870;2022-07-29T02:14:30;3.65;;;1.73;;
51495;SDS011;37572;52.094;4.870;2022-07-29T02:17:00;4.13;;;1.45;;
51495;SDS011;37572;52.094;4.870;2022-07-29T02:19:27;3.53;;;1.27;;
51495;SDS011;37572;52.094;4.870;2022-07-29T02:21:55;3.80;;;2.05;;
51495;SDS011;37572;52.094;4.870;2022-07-29T02:24:23;4.55;;;1.70;;
51495;SDS011;37572;52.094;4.870;2022-07-29T02:26:50;2.22;;;1.40;;
51495;SDS011;37572;52.094;4.870;2022-07-29T02:29:18;6.60;;;1.63;;
51495;SDS011;37572;52.094;4.870;2022-07-29T02:31:46;6.20;;;1.85;;
51495;SDS011;37572;52.094;4.870;2022-07-29T02:34:13;2.78;;;1.88;;
51495;SDS011;37572;52.094;4.870;2022-07-29T02:36:42;4.55;;;2.00;;
51495;SDS011;37572;52.094;4.870;2022-07-29T02:39:09;5.97;;;1.83;;
51495;SDS011;37572;52.094;4.870;2022-07-29T02:41:47;4.65;;;1.70;;
51495;SDS011;37572;52.094;4.870;2022-07-29T02:44:14;4.68;;;1.35;;
51495;SDS011;37572;52.094;4.870;2022-07-29T02:46:46;4.70;;;2.20;;
51495;SDS011;37572;52.094;4.870;2022-07-29T02:49:31;3.75;;;1.90;;
51495;SDS011;37572;52.094;4.870;2022-07-29T02:54:38;10.10;;;2.17;;
51495;SDS011;37572;52.094;4.870;2022-07-29T02:59:56;4.55;;;2.28;;
51495;SDS011;37572;52.094;4.870;2022-07-29T03:02:25;4.05;;;1.80;;
51495;SDS011;37572;52.094;4.870;2022-07-29T03:04:50;5.93;;;2.40;;
51495;SDS011;37572;52.094;4.870;2022-07-29T03:07:18;3.47;;;1.98;;
51495;SDS011;37572;52.094;4.870;2022-07-29T03:09:45;4.25;;;1.55;;
51495;SDS011;37572;52.094;4.870;2022-07-29T03:12:11;4.70;;;2.47;;
51495;SDS011;37572;52.094;4.870;2022-07-29T03:14:37;5.68;;;2.20;;
51495;SDS011;37572;52.094;4.870;2022-07-29T03:17:03;3.05;;;2.00;;
51495;SDS011;37572;52.094;4.870;2022-07-29T03:19:29;2.92;;;2.10;;
51495;SDS011;37572;52.094;4.870;2022-07-29T03:21:56;10.02;;;2.40;;
51495;SDS011;37572;52.094;4.870;2022-07-29T03:24:29;3.15;;;2.00;;
51495;SDS011;37572;52.094;4.870;2022-07-29T03:26:58;3.13;;;2.00;;
51495;SDS011;37572;52.094;4.870;2022-07-29T03:29:24;5.28;;;2.40;;
51495;SDS011;37572;52.094;4.870;2022-07-29T03:31:50;4.43;;;2.30;;
51495;SDS011;37572;52.094;4.870;2022-07-29T03:34:15;4.35;;;2.33;;
51495;SDS011;37572;52.094;4.870;2022-07-29T03:36:40;3.20;;;2.15;;
51495;SDS011;37572;52.094;4.870;2022-07-29T03:39:06;7.63;;;2.10;;
51495;SDS011;37572;52.094;4.870;2022-07-29T03:41:33;6.38;;;2.58;;
51495;SDS011;37572;52.094;4.870;2022-07-29T03:44:01;7.93;;;2.47;;
51495;SDS011;37572;52.094;4.870;2022-07-29T03:46:28;9.38;;;2.53;;
51495;SDS011;37572;52.094;4.870;2022-07-29T03:48:58;4.80;;;2.15;;
51495;SDS011;37572;52.094;4.870;2022-07-29T03:51:26;3.60;;;2.28;;
51495;SDS011;37572;52.094;4.870;2022-07-29T03:53:52;5.38;;;2.08;;
51495;SDS011;37572;52.094;4.870;2022-07-29T03:56:17;9.05;;;2.40;;
51495;SDS011;37572;52.094;4.870;2022-07-29T03:58:46;3.70;;;2.10;;
51495;SDS011;37572;52.094;4.870;2022-07-29T04:01:14;4.97;;;2.38;;
51495;SDS011;37572;52.094;4.870;2022-07-29T04:03:42;5.60;;;2.33;;
51495;SDS011;37572;52.094;4.870;2022-07-29T04:06:10;5.72;;;2.45;;
51495;SDS011;37572;52.094;4.870;2022-07-29T04:08:35;5.05;;;2.15;;
51495;SDS011;37572;52.094;4.870;2022-07-29T04:11:01;5.80;;;2.72;;
51495;SDS011;37572;52.094;4.870;2022-07-29T04:13:27;5.25;;;2.78;;
51495;SDS011;37572;52.094;4.870;2022-07-29T04:15:52;6.38;;;2.55;;
51495;SDS011;37572;52.094;4.870;2022-07-29T04:18:18;3.88;;;2.17;;
51495;SDS011;37572;52.094;4.870;2022-07-29T04:20:43;5.97;;;2.65;;
51495;SDS011;37572;52.094;4.870;2022-07-29T04:23:08;4.55;;;2.58;;
51495;SDS011;37572;52.094;4.870;2022-07-29T04:25:36;5.25;;;2.90;;
51495;SDS011;37572;52.094;4.870;2022-07-29T04:28:05;5.47;;;2.77;;
51495;SDS011;37572;52.094;4.870;2022-07-29T04:30:31;7.10;;;3.13;;
51495;SDS011;37572;52.094;4.870;2022-07-29T04:32:58;5.55;;;2.40;;
51495;SDS011;37572;52.094;4.870;2022-07-29T04:35:25;3.88;;;2.40;;
51495;SDS011;37572;52.094;4.870;2022-07-29T04:37:51;6.57;;;2.03;;
51495;SDS011;37572;52.094;4.870;2022-07-29T04:40:16;5.38;;;2.90;;
51495;SDS011;37572;52.094;4.870;2022-07-29T04:42:42;4.93;;;2.40;;
51495;SDS011;37572;52.094;4.870;2022-07-29T04:45:07;5.18;;;2.70;;
51495;SDS011;37572;52.094;4.870;2022-07-29T04:47:33;6.65;;;3.22;;
51495;SDS011;37572;52.094;4.870;2022-07-29T04:49:58;5.00;;;2.47;;
51495;SDS011;37572;52.094;4.870;2022-07-29T04:52:23;4.35;;;2.28;;
51495;SDS011;37572;52.094;4.870;2022-07-29T04:54:49;3.97;;;2.45;;
51495;SDS011;37572;52.094;4.870;2022-07-29T04:57:14;7.28;;;2.53;;
51495;SDS011;37572;52.094;4.870;2022-07-29T04:59:39;6.43;;;2.60;;
51495;SDS011;37572;52.094;4.870;2022-07-29T05:02:06;4.18;;;2.50;;
51495;SDS011;37572;52.094;4.870;2022-07-29T05:04:31;6.75;;;2.78;;
51495;SDS011;37572;52.094;4.870;2022-07-29T05:06:56;5.32;;;2.55;;
51495;SDS011;37572;52.094;4.870;2022-07-29T05:09:22;5.45;;;2.47;;
51495;SDS011;37572;52.094;4.870;2022-07-29T05:11:47;5.15;;;2.65;;
51495;SDS011;37572;52.094;4.870;2022-07-29T05:14:12;6.15;;;3.05;;
51495;SDS011;37572;52.094;4.870;2022-07-29T05:16:38;5.85;;;2.88;;
51495;SDS011;37572;52.094;4.870;2022-07-29T05:19:05;6.20;;;2.55;;
51495;SDS011;37572;52.094;4.870;2022-07-29T05:21:30;3.47;;;2.47;;
51495;SDS011;37572;52.094;4.870;2022-07-29T05:23:56;4.90;;;2.55;;
51495;SDS011;37572;52.094;4.870;2022-07-29T05:26:21;3.65;;;2.30;;
51495;SDS011;37572;52.094;4.870;2022-07-29T05:28:46;5.43;;;2.55;;
51495;SDS011;37572;52.094;4.870;2022-07-29T05:31:11;6.72;;;2.40;;
51495;SDS011;37572;52.094;4.870;2022-07-29T05:33:39;8.43;;;2.58;;
51495;SDS011;37572;52.094;4.870;2022-07-29T05:36:05;3.17;;;2.05;;
51495;SDS011;37572;52.094;4.870;2022-07-29T05:38:31;5.43;;;2.72;;
51495;SDS011;37572;52.094;4.870;2022-07-29T05:40:57;4.97;;;2.90;;
51495;SDS011;37572;52.094;4.870;2022-07-29T05:43:23;2.97;;;2.00;;
51495;SDS011;37572;52.094;4.870;2022-07-29T05:45:49;2.92;;;2.08;;
51495;SDS011;37572;52.094;4.870;2022-07-29T05:48:14;4.18;;;2.20;;
51495;SDS011;37572;52.094;4.870;2022-07-29T05:50:39;4.18;;;2.22;;
51495;SDS011;37572;52.094;4.870;2022-07-29T05:53:05;7.50;;;2.33;;
51495;SDS011;37572;52.094;4.870;2022-07-29T05:55:30;6.32;;;2.92;;
51495;SDS011;37572;52.094;4.870;2022-07-29T05:57:55;7.18;;;2.10;;
51495;SDS011;37572;52.094;4.870;2022-07-29T06:00:21;4.22;;;2.13;;
51495;SDS011;37572;52.094;4.870;2022-07-29T06:02:46;3.50;;;2.15;;
51495;SDS011;37572;52.094;4.870;2022-07-29T06:05:12;3.58;;;2.13;;
51495;SDS011;37572;52.094;4.870;2022-07-29T06:07:37;2.58;;;2.00;;
51495;SDS011;37572;52.094;4.870;2022-07-29T06:10:02;3.47;;;2.10;;
51495;SDS011;37572;52.094;4.870;2022-07-29T06:12:28;3.53;;;2.05;;
51495;SDS011;37572;52.094;4.870;2022-07-29T06:14:53;3.45;;;1.70;;
51495;SDS011;37572;52.094;4.870;2022-07-29T06:17:18;4.03;;;1.50;;
51495;SDS011;37572;52.094;4.870;2022-07-29T06:19:44;3.08;;;1.50;;
51495;SDS011;37572;52.094;4.870;2022-07-29T06:22:09;6.18;;;1.85;;
51495;SDS011;37572;52.094;4.870;2022-07-29T06:24:35;3.50;;;1.80;;
51495;SDS011;37572;52.094;4.870;2022-07-29T06:27:02;2.45;;;1.58;;
51495;SDS011;37572;52.094;4.870;2022-07-29T06:29:27;6.43;;;2.10;;
51495;SDS011;37572;52.094;4.870;2022-07-29T06:31:52;6.93;;;2.28;;
51495;SDS011;37572;52.094;4.870;2022-07-29T06:34:18;2.45;;;1.90;;
51495;SDS011;37572;52.094;4.870;2022-07-29T06:36:43;3.83;;;1.73;;
51495;SDS011;37572;52.094;4.870;2022-07-29T06:39:09;5.07;;;2.28;;
51495;SDS011;37572;52.094;4.870;2022-07-29T06:41:34;7.32;;;2.38;;
51495;SDS011;37572;52.094;4.870;2022-07-29T06:44:00;5.38;;;1.90;;
51495;SDS011;37572;52.094;4.870;2022-07-29T06:46:26;4.63;;;1.85;;
51495;SDS011;37572;52.094;4.870;2022-07-29T06:48:52;5.22;;;2.22;;
51495;SDS011;37572;52.094;4.870;2022-07-29T06:51:18;4.75;;;2.00;;
51495;SDS011;37572;52.094;4.870;2022-07-29T06:53:43;5.60;;;2.08;;
51495;SDS011;37572;52.094;4.870;2022-07-29T06:56:09;3.67;;;1.70;;
51495;SDS011;37572;52.094;4.870;2022-07-29T06:58:35;3.97;;;2.00;;
51495;SDS011;37572;52.094;4.870;2022-07-29T07:01:02;6.65;;;1.67;;
51495;SDS011;37572;52.094;4.870;2022-07-29T07:03:30;3.20;;;2.05;;
51495;SDS011;37572;52.094;4.870;2022-07-29T07:05:56;6.55;;;1.83;;
51495;SDS011;37572;52.094;4.870;2022-07-29T07:08:22;4.80;;;1.95;;
51495;SDS011;37572;52.094;4.870;2022-07-29T07:10:48;8.90;;;2.45;;
51495;SDS011;37572;52.094;4.870;2022-07-29T07:13:14;7.18;;;1.80;;
51495;SDS011;37572;52.094;4.870;2022-07-29T07:15:42;4.95;;;1.80;;
51495;SDS011;37572;52.094;4.870;2022-07-29T07:18:08;3.55;;;1.90;;
51495;SDS011;37572;52.094;4.870;2022-07-29T07:20:33;4.38;;;2.00;;
51495;SDS011;37572;52.094;4.870;2022-07-29T07:22:59;4.85;;;1.88;;
51495;SDS011;37572;52.094;4.870;2022-07-29T07:25:25;12.68;;;2.05;;
51495;SDS011;37572;52.094;4.870;2022-07-29T07:27:50;3.83;;;1.90;;
51495;SDS011;37572;52.094;4.870;2022-07-29T07:30:16;8.15;;;1.92;;
51495;SDS011;37572;52.094;4.870;2022-07-29T07:32:41;3.42;;;2.00;;
51495;SDS011;37572;52.094;4.870;2022-07-29T07:35:07;5.35;;;1.98;;
51495;SDS011;37572;52.094;4.870;2022-07-29T07:37:34;4.60;;;2.28;;
51495;SDS011;37572;52.094;4.870;2022-07-29T07:40:02;8.82;;;2.35;;
51495;SDS011;37572;52.094;4.870;2022-07-29T07:42:28;4.47;;;1.65;;
51495;SDS011;37572;52.094;4.870;2022-07-29T07:44:54;5.60;;;2.05;;
51495;SDS011;37572;52.094;4.870;2022-07-29T07:47:19;5.10;;;2.00;;
51495;SDS011;37572;52.094;4.870;2022-07-29T07:49:45;3.85;;;2.20;;
51495;SDS011;37572;52.094;4.870;2022-07-29T07:52:11;4.50;;;1.90;;
51495;SDS011;37572;52.094;4.870;2022-07-29T07:54:37;3.15;;;1.83;;
51495;SDS011;37572;52.094;4.870;2022-07-29T07:57:02;4.85;;;2.30;;
51495;SDS011;37572;52.094;4.870;2022-07-29T07:59:27;5.30;;;2.28;;
51495;SDS011;37572;52.094;4.870;2022-07-29T08:01:53;7.63;;;2.30;;
51495;SDS011;37572;52.094;4.870;2022-07-29T08:04:18;7.88;;;2.50;;
51495;SDS011;37572;52.094;4.870;2022-07-29T08:06:43;3.70;;;2.05;;
51495;SDS011;37572;52.094;4.870;2022-07-29T08:09:08;3.40;;;1.85;;
51495;SDS011;37572;52.094;4.870;2022-07-29T08:11:34;5.18;;;2.50;;
51495;SDS011;37572;52.094;4.870;2022-07-29T08:13:59;4.45;;;2.05;;
51495;SDS011;37572;52.094;4.870;2022-07-29T08:16:26;3.78;;;2.10;;
51495;SDS011;37572;52.094;4.870;2022-07-29T08:18:51;4.57;;;2.10;;
51495;SDS011;37572;52.094;4.870;2022-07-29T08:21:21;3.65;;;1.88;;
51495;SDS011;37572;52.094;4.870;2022-07-29T08:23:47;5.80;;;2.13;;
51495;SDS011;37572;52.094;4.870;2022-07-29T08:26:17;4.18;;;1.95;;
51495;SDS011;37572;52.094;4.870;2022-07-29T08:28:44;5.38;;;2.75;;
51495;SDS011;37572;52.094;4.870;2022-07-29T08:31:11;3.95;;;2.03;;
51495;SDS011;37572;52.094;4.870;2022-07-29T08:33:38;3.80;;;2.15;;
51495;SDS011;37572;52.094;4.870;2022-07-29T08:36:04;4.28;;;1.83;;
51495;SDS011;37572;52.094;4.870;2022-07-29T08:38:30;3.92;;;2.40;;
51495;SDS011;37572;52.094;4.870;2022-07-29T08:40:55;6.38;;;2.70;;
51495;SDS011;37572;52.094;4.870;2022-07-29T08:43:21;4.60;;;2.58;;
51495;SDS011;37572;52.094;4.870;2022-07-29T08:45:47;6.63;;;2.50;;
51495;SDS011;37572;52.094;4.870;2022-07-29T08:48:15;6.60;;;2.78;;
51495;SDS011;37572;52.094;4.870;2022-07-29T08:50:42;10.00;;;2.38;;
51495;SDS011;37572;52.094;4.870;2022-07-29T08:53:12;6.03;;;2.97;;
51495;SDS011;37572;52.094;4.870;2022-07-29T08:55:40;3.25;;;2.17;;
51495;SDS011;37572;52.094;4.870;2022-07-29T08:58:07;8.45;;;2.60;;
51495;SDS011;37572;52.094;4.870;2022-07-29T09:00:33;9.15;;;2.58;;
51495;SDS011;37572;52.094;4.870;2022-07-29T09:03:01;4.35;;;2.55;;
51495;SDS011;37572;52.094;4.870;2022-07-29T09:05:28;5.80;;;2.72;;
51495;SDS011;37572;52.094;4.870;2022-07-29T09:07:54;7.97;;;2.83;;
51495;SDS011;37572;52.094;4.870;2022-07-29T09:10:20;7.20;;;2.67;;
51495;SDS011;37572;52.094;4.870;2022-07-29T09:12:46;3.63;;;2.30;;
51495;SDS011;37572;52.094;4.870;2022-07-29T09:15:11;4.38;;;3.13;;
51495;SDS011;37572;52.094;4.870;2022-07-29T09:17:47;6.68;;;3.05;;
51495;SDS011;37572;52.094;4.870;2022-07-29T09:20:15;6.22;;;2.55;;
51495;SDS011;37572;52.094;4.870;2022-07-29T09:22:46;6.80;;;2.63;;
51495;SDS011;37572;52.094;4.870;2022-07-29T09:25:34;3.97;;;2.55;;
51495;SDS011;37572;52.094;4.870;2022-07-29T09:28:14;4.43;;;2.40;;
51495;SDS011;37572;52.094;4.870;2022-07-29T09:30:53;3.35;;;2.17;;
51495;SDS011;37572;52.094;4.870;2022-07-29T09:33:21;8.30;;;2.50;;
51495;SDS011;37572;52.094;4.870;2022-07-29T09:36:08;6.28;;;2.50;;
51495;SDS011;37572;52.094;4.870;2022-07-29T09:38:34;4.78;;;2.35;;
51495;SDS011;37572;52.094;4.870;2022-07-29T09:41:02;7.22;;;2.63;;
51495;SDS011;37572;52.094;4.870;2022-07-29T09:43:28;4.78;;;2.65;;
51495;SDS011;37572;52.094;4.870;2022-07-29T09:45:54;2.95;;;2.08;;
51495;SDS011;37572;52.094;4.870;2022-07-29T09:48:21;5.10;;;2.38;;
51495;SDS011;37572;52.094;4.870;2022-07-29T09:50:48;3.10;;;2.20;;
51495;SDS011;37572;52.094;4.870;2022-07-29T09:56:09;4.95;;;2.60;;
51495;SDS011;37572;52.094;4.870;2022-07-29T09:58:35;6.65;;;2.85;;
51495;SDS011;37572;52.094;4.870;2022-07-29T10:01:01;4.40;;;2.55;;
51495;SDS011;37572;52.094;4.870;2022-07-29T10:03:26;4.53;;;2.30;;
51495;SDS011;37572;52.094;4.870;2022-07-29T10:06:07;5.90;;;2.38;;
51495;SDS011;37572;52.094;4.870;2022-07-29T10:08:34;9.98;;;2.70;;
51495;SDS011;37572;52.094;4.870;2022-07-29T10:11:13;4.75;;;2.13;;
51495;SDS011;37572;52.094;4.870;2022-07-29T10:16:06;5.55;;;2.95;;
51495;SDS011;37572;52.094;4.870;2022-07-29T10:18:31;6.32;;;2.67;;
51495;SDS011;37572;52.094;4.870;2022-07-29T10:20:58;7.25;;;2.50;;
51495;SDS011;37572;52.094;4.870;2022-07-29T10:23:25;8.73;;;2.80;;
51495;SDS011;37572;52.094;4.870;2022-07-29T10:25:52;5.43;;;2.88;;
51495;SDS011;37572;52.094;4.870;2022-07-29T10:28:17;6.78;;;2.40;;
51495;SDS011;37572;52.094;4.870;2022-07-29T10:30:43;4.90;;;2.63;;
51495;SDS011;37572;52.094;4.870;2022-07-29T10:36:16;6.15;;;2.20;;
51495;SDS011;37572;52.094;4.870;2022-07-29T10:38:55;4.93;;;2.25;;
51495;SDS011;37572;52.094;4.870;2022-07-29T10:44:30;5.78;;;2.85;;
51495;SDS011;37572;52.094;4.870;2022-07-29T10:46:58;5.53;;;2.50;;
51495;SDS011;37572;52.094;4.870;2022-07-29T10:49:26;4.75;;;2.70;;
51495;SDS011;37572;52.094;4.870;2022-07-29T10:57:10;4.63;;;2.42;;
51495;SDS011;37572;52.094;4.870;2022-07-29T11:07:37;7.40;;;2.78;;
51495;SDS011;37572;52.094;4.870;2022-07-29T11:15:08;6.88;;;2.50;;
51495;SDS011;37572;52.094;4.870;2022-07-29T11:29:03;9.00;;;2.90;;
51495;SDS011;37572;52.094;4.870;2022-07-29T11:47:21;9.50;;;2.70;;
51495;SDS011;37572;52.094;4.870;2022-07-29T11:49:46;4.35;;;2.15;;
51495;SDS011;37572;52.094;4.870;2022-07-29T11:52:12;7.25;;;2.70;;
51495;SDS011;37572;52.094;4.870;2022-07-29T11:54:38;7.70;;;2.30;;
51495;SDS011;37572;52.094;4.870;2022-07-29T11:57:07;10.65;;;2.78;;
51495;SDS011;37572;52.094;4.870;2022-07-29T11:59:37;4.05;;;2.50;;
51495;SDS011;37572;52.094;4.870;2022-07-29T12:02:04;4.63;;;2.35;;
51495;SDS011;37572;52.094;4.870;2022-07-29T12:04:29;10.13;;;2.70;;
51495;SDS011;37572;52.094;4.870;2022-07-29T12:06:55;4.93;;;2.30;;
51495;SDS011;37572;52.094;4.870;2022-07-29T12:09:21;4.45;;;2.33;;
51495;SDS011;37572;52.094;4.870;2022-07-29T12:11:48;3.88;;;2.20;;
51495;SDS011;37572;52.094;4.870;2022-07-29T12:16:54;7.07;;;2.63;;
51495;SDS011;37572;52.094;4.870;2022-07-29T12:19:20;5.97;;;2.42;;
51495;SDS011;37572;52.094;4.870;2022-07-29T12:21:46;7.05;;;2.65;;
51495;SDS011;37572;52.094;4.870;2022-07-29T12:24:13;12.00;;;2.35;;
51495;SDS011;37572;52.094;4.870;2022-07-29T12:26:49;6.35;;;2.60;;
51495;SDS011;37572;52.094;4.870;2022-07-29T12:29:15;7.72;;;2.97;;
51495;SDS011;37572;52.094;4.870;2022-07-29T12:31:42;11.93;;;3.25;;
51495;SDS011;37572;52.094;4.870;2022-07-29T12:34:08;6.10;;;2.33;;
51495;SDS011;37572;52.094;4.870;2022-07-29T12:36:35;7.60;;;2.67;;
51495;SDS011;37572;52.094;4.870;2022-07-29T12:39:01;5.65;;;2.28;;
51495;SDS011;37572;52.094;4.870;2022-07-29T12:41:28;10.05;;;2.90;;
51495;SDS011;37572;52.094;4.870;2022-07-29T12:43:54;3.45;;;2.00;;
51495;SDS011;37572;52.094;4.870;2022-07-29T12:46:20;5.72;;;2.28;;
51495;SDS011;37572;52.094;4.870;2022-07-29T12:48:49;7.35;;;2.60;;
51495;SDS011;37572;52.094;4.870;2022-07-29T12:51:27;8.90;;;2.85;;
51495;SDS011;37572;52.094;4.870;2022-07-29T12:54:04;5.35;;;2.03;;
51495;SDS011;37572;52.094;4.870;2022-07-29T12:56:38;4.55;;;1.90;;
51495;SDS011;37572;52.094;4.870;2022-07-29T12:59:20;3.75;;;2.13;;
51495;SDS011;37572;52.094;4.870;2022-07-29T13:01:47;5.82;;;2.05;;
51495;SDS011;37572;52.094;4.870;2022-07-29T13:04:25;4.82;;;2.47;;
51495;SDS011;37572;52.094;4.870;2022-07-29T13:06:58;5.68;;;2.28;;
51495;SDS011;37572;52.094;4.870;2022-07-29T13:09:41;6.70;;;2.58;;
51495;SDS011;37572;52.094;4.870;2022-07-29T13:12:10;8.98;;;2.63;;
51495;SDS011;37572;52.094;4.870;2022-07-29T13:14:42;7.57;;;2.30;;
51495;SDS011;37572;52.094;4.870;2022-07-29T13:19:42;5.35;;;2.88;;
51495;SDS011;37572;52.094;4.870;2022-07-29T13:22:12;12.75;;;2.40;;
51495;SDS011;37572;52.094;4.870;2022-07-29T13:27:11;8.13;;;2.03;;
51495;SDS011;37572;52.094;4.870;2022-07-29T13:29:36;9.40;;;2.75;;
51495;SDS011;37572;52.094;4.870;2022-07-29T13:32:05;5.80;;;3.00;;
51495;SDS011;37572;52.094;4.870;2022-07-29T13:34:30;6.75;;;2.40;;
51495;SDS011;37572;52.094;4.870;2022-07-29T13:36:55;10.00;;;3.17;;
51495;SDS011;37572;52.094;4.870;2022-07-29T13:39:21;6.97;;;2.65;;
51495;SDS011;37572;52.094;4.870;2022-07-29T13:41:46;7.30;;;2.63;;
51495;SDS011;37572;52.094;4.870;2022-07-29T13:44:12;10.38;;;3.05;;
51495;SDS011;37572;52.094;4.870;2022-07-29T13:46:37;7.43;;;2.92;;
51495;SDS011;37572;52.094;4.870;2022-07-29T13:49:02;4.68;;;2.25;;
51495;SDS011;37572;52.094;4.870;2022-07-29T13:51:28;7.30;;;2.95;;
51495;SDS011;37572;52.094;4.870;2022-07-29T13:53:53;5.35;;;2.40;;
51495;SDS011;37572;52.094;4.870;2022-07-29T13:56:18;10.07;;;3.45;;
51495;SDS011;37572;52.094;4.870;2022-07-29T13:58:44;6.25;;;2.90;;
51495;SDS011;37572;52.094;4.870;2022-07-29T14:01:09;13.52;;;3.28;;
51495;SDS011;37572;52.094;4.870;2022-07-29T14:03:34;13.82;;;2.78;;
51495;SDS011;37572;52.094;4.870;2022-07-29T14:06:01;7.68;;;2.85;;
51495;SDS011;37572;52.094;4.870;2022-07-29T14:08:27;9.07;;;3.28;;
51495;SDS011;37572;52.094;4.870;2022-07-29T14:10:52;7.85;;;3.60;;
51495;SDS011;37572;52.094;4.870;2022-07-29T14:13:17;6.95;;;2.90;;
51495;SDS011;37572;52.094;4.870;2022-07-29T14:15:42;8.60;;;3.35;;
51495;SDS011;37572;52.094;4.870;2022-07-29T14:18:08;3.95;;;2.60;;
51495;SDS011;37572;52.094;4.870;2022-07-29T14:20:33;5.68;;;2.92;;
51495;SDS011;37572;52.094;4.870;2022-07-29T14:22:58;10.70;;;2.88;;
51495;SDS011;37572;52.094;4.870;2022-07-29T14:25:24;7.57;;;2.97;;
51495;SDS011;37572;52.094;4.870;2022-07-29T14:27:49;11.80;;;2.85;;
51495;SDS011;37572;52.094;4.870;2022-07-29T14:30:14;9.10;;;2.92;;
51495;SDS011;37572;52.094;4.870;2022-07-29T14:32:40;7.68;;;3.67;;
51495;SDS011;37572;52.094;4.870;2022-07-29T14:35:06;6.80;;;2.78;;
51495;SDS011;37572;52.094;4.870;2022-07-29T14:37:32;6.10;;;2.53;;
51495;SDS011;37572;52.094;4.870;2022-07-29T14:39:58;5.53;;;2.63;;
51495;SDS011;37572;52.094;4.870;2022-07-29T14:42:28;7.07;;;2.90;;
51495;SDS011;37572;52.094;4.870;2022-07-29T14:44:54;5.80;;;2.85;;
51495;SDS011;37572;52.094;4.870;2022-07-29T14:47:19;6.90;;;3.08;;
51495;SDS011;37572;52.094;4.870;2022-07-29T14:49:44;6.72;;;3.00;;
51495;SDS011;37572;52.094;4.870;2022-07-29T14:52:10;6.60;;;2.90;;
51495;SDS011;37572;52.094;4.870;2022-07-29T14:54:35;10.10;;;3.10;;
51495;SDS011;37572;52.094;4.870;2022-07-29T14:57:00;6.82;;;3.40;;
51495;SDS011;37572;52.094;4.870;2022-07-29T14:59:26;4.70;;;2.20;;
51495;SDS011;37572;52.094;4.870;2022-07-29T15:01:51;6.10;;;2.70;;
51495;SDS011;37572;52.094;4.870;2022-07-29T15:04:17;8.65;;;3.00;;
51495;SDS011;37572;52.094;4.870;2022-07-29T15:06:42;7.10;;;2.42;;
51495;SDS011;37572;52.094;4.870;2022-07-29T15:09:08;7.38;;;2.95;;
51495;SDS011;37572;52.094;4.870;2022-07-29T15:11:33;3.72;;;2.35;;
51495;SDS011;37572;52.094;4.870;2022-07-29T15:13:58;10.43;;;2.55;;
51495;SDS011;37572;52.094;4.870;2022-07-29T15:16:24;7.50;;;2.22;;
51495;SDS011;37572;52.094;4.870;2022-07-29T15:18:49;5.40;;;2.20;;
51495;SDS011;37572;52.094;4.870;2022-07-29T15:21:14;6.05;;;2.38;;
51495;SDS011;37572;52.094;4.870;2022-07-29T15:23:40;5.53;;;2.55;;
51495;SDS011;37572;52.094;4.870;2022-07-29T15:26:05;3.20;;;1.85;;
51495;SDS011;37572;52.094;4.870;2022-07-29T15:28:30;5.55;;;2.50;;
51495;SDS011;37572;52.094;4.870;2022-07-29T15:30:56;6.25;;;2.40;;
51495;SDS011;37572;52.094;4.870;2022-07-29T15:33:21;4.15;;;2.25;;
51495;SDS011;37572;52.094;4.870;2022-07-29T15:35:46;6.72;;;1.90;;
51495;SDS011;37572;52.094;4.870;2022-07-29T15:38:12;5.38;;;2.03;;
51495;SDS011;37572;52.094;4.870;2022-07-29T15:40:37;7.32;;;2.10;;
51495;SDS011;37572;52.094;4.870;2022-07-29T15:43:06;5.07;;;1.90;;
51495;SDS011;37572;52.094;4.870;2022-07-29T15:45:41;2.83;;;1.30;;
51495;SDS011;37572;52.094;4.870;2022-07-29T15:48:27;4.03;;;1.92;;
51495;SDS011;37572;52.094;4.870;2022-07-29T15:50:52;6.32;;;1.77;;
51495;SDS011;37572;52.094;4.870;2022-07-29T15:53:18;5.80;;;1.95;;
51495;SDS011;37572;52.094;4.870;2022-07-29T15:55:43;4.05;;;1.52;;
51495;SDS011;37572;52.094;4.870;2022-07-29T15:58:08;4.57;;;1.48;;
51495;SDS011;37572;52.094;4.870;2022-07-29T16:00:33;9.25;;;1.92;;
51495;SDS011;37572;52.094;4.870;2022-07-29T16:03:02;6.55;;;1.75;;
51495;SDS011;37572;52.094;4.870;2022-07-29T16:05:27;7.63;;;1.65;;
51495;SDS011;37572;52.094;4.870;2022-07-29T16:07:53;2.63;;;1.45;;